Time;durP1;ratioP1;P1;durP2;ratioP2;P2;SDS_P1;SDS_P2;PMS_P1;PMS_P2;Temp;Humidity;BMP_temperature;BMP_pressure;BME280_temperature;BME280_humidity;BME280_pressure;Samples;Min_cycle;Max_cycle;Signal;HPM_P1;HPM_P2
2024/01/28 00:00:18;;;;;;;;;;;2.80;99.90;;;;;;5016901;28;19917;-62
2024/01/28 00:02:43;;;;;;;;;;;2.80;99.90;;;;;;5024736;28;19936;-61
2024/01/28 00:05:13;;;;;;;;;;;2.80;99.90;;;;;;5023895;28;19909;-62
2024/01/28 00:07:38;;;;;;;;;;;2.80;99.90;;;;;;5025023;28;19917;-61
2024/01/28 00:10:04;;;;;;;;;;;2.70;99.90;;;;;;5024020;28;19965;-62
2024/01/28 00:12:30;;;;;;;;;;;2.70;99.90;;;;;;5024546;28;19913;-61
2024/01/28 00:14:56;;;;;;;;;;;2.70;99.90;;;;;;5024315;28;19921;-62
2024/01/28 00:17:21;;;;;;;;;;;2.70;99.90;;;;;;5024359;28;19913;-61
2024/01/28 00:19:47;;;;;;;;;;;2.80;99.90;;;;;;5023199;28;20048;-62
2024/01/28 00:22:12;;;;;;;;;;;2.70;99.90;;;;;;5024190;28;19924;-61
2024/01/28 00:24:38;;;;;;;;;;;2.70;99.90;;;;;;5024321;28;20281;-62
2024/01/28 00:27:03;;;;;;;;;;;2.70;99.90;;;;;;5045749;28;20277;-62
2024/01/28 00:29:29;;;;;;;;;;;2.70;99.90;;;;;;5024131;28;19917;-62
2024/01/28 00:31:55;;;;;;;;;;;2.70;99.90;;;;;;5023282;28;19910;-62
2024/01/28 00:34:21;;;;;;;;;;;2.70;99.90;;;;;;5024121;28;19917;-61
2024/01/28 00:36:46;;;;;;;;;;;2.70;99.90;;;;;;5051784;28;19913;-62
2024/01/28 00:39:14;;;;;;;;;;;2.70;99.90;;;;;;5019443;28;20541;-61
2024/01/28 00:41:40;;;;;;;;;;;2.70;99.90;;;;;;5016473;28;20310;-61
2024/01/28 00:44:06;;;;;;;;;;;2.70;99.90;;;;;;5014844;28;19923;-62
2024/01/28 00:46:32;;;;;;;;;;;2.70;99.90;;;;;;5021438;28;19925;-62
2024/01/28 00:48:57;;;;;;;;;;;2.70;99.90;;;;;;5021358;28;19938;-61
2024/01/28 00:51:23;;;;;;;;;;;2.70;99.90;;;;;;5022173;28;20684;-61
2024/01/28 00:53:49;;;;;;;;;;;2.70;99.90;;;;;;5022388;28;20343;-62
2024/01/28 00:56:16;;;;;;;;;;;2.70;99.90;;;;;;5023715;28;19909;-61
2024/01/28 00:58:42;;;;;;;;;;;2.60;99.90;;;;;;5023792;28;19913;-62
2024/01/28 01:01:07;;;;;;;;;;;2.60;99.90;;;;;;5022988;28;20196;-62
2024/01/28 01:03:33;;;;;;;;;;;2.60;99.90;;;;;;5023895;28;19913;-62
2024/01/28 01:05:58;;;;;;;;;;;2.60;99.90;;;;;;5023190;28;19916;-61
2024/01/28 01:08:24;;;;;;;;;;;2.60;99.90;;;;;;5023704;28;19917;-61
2024/01/28 01:10:50;;;;;;;;;;;2.60;99.90;;;;;;5023106;28;19936;-61
2024/01/28 01:13:15;;;;;;;;;;;2.60;99.90;;;;;;5023611;28;19924;-62
2024/01/28 01:15:41;;;;;;;;;;;2.60;99.90;;;;;;5023368;28;19917;-62
2024/01/28 01:18:07;;;;;;;;;;;2.60;99.90;;;;;;5014293;28;19917;-61
2024/01/28 01:20:33;;;;;;;;;;;2.60;99.90;;;;;;5023520;28;20384;-62
2024/01/28 01:22:58;;;;;;;;;;;2.60;99.90;;;;;;5022429;28;19913;-62
2024/01/28 01:25:24;;;;;;;;;;;2.60;99.90;;;;;;5023553;28;20028;-62
2024/01/28 01:27:52;;;;;;;;;;;2.60;99.90;;;;;;5018236;28;19981;-61
2024/01/28 01:30:18;;;;;;;;;;;2.60;99.90;;;;;;5023124;28;19925;-62
2024/01/28 01:32:43;;;;;;;;;;;2.60;99.90;;;;;;5023325;28;20370;-62
2024/01/28 01:35:09;;;;;;;;;;;2.60;99.90;;;;;;5022795;28;19920;-62
2024/01/28 01:37:35;;;;;;;;;;;2.60;99.90;;;;;;5023430;28;19920;-61
2024/01/28 01:40:01;;;;;;;;;;;2.60;99.90;;;;;;5022974;27;19913;-62
2024/01/28 01:42:26;;;;;;;;;;;2.60;99.90;;;;;;5023283;28;20065;-62
2024/01/28 01:44:52;;;;;;;;;;;2.60;99.90;;;;;;5005051;28;20551;-62
2024/01/28 01:47:18;;;;;;;;;;;2.60;99.90;;;;;;5023128;28;19958;-62
2024/01/28 01:49:44;;;;;;;;;;;2.60;99.90;;;;;;5005263;28;20271;-61
2024/01/28 01:52:09;;;;;;;;;;;2.60;99.90;;;;;;5022342;28;19915;-62
2024/01/28 01:54:35;;;;;;;;;;;2.50;99.90;;;;;;5023137;28;19913;-62
2024/01/28 01:57:01;;;;;;;;;;;2.60;99.90;;;;;;5022895;28;19923;-62
2024/01/28 01:59:27;;;;;;;;;;;2.50;99.90;;;;;;5023224;28;19917;-61
2024/01/28 02:01:54;;;;;;;;;;;2.50;99.90;;;;;;5022349;28;20620;-61
2024/01/28 02:04:23;;;;;;;;;;;2.60;99.90;;;;;;5023023;28;20001;-61
2024/01/28 02:06:51;;;;;;;;;;;2.60;99.90;;;;;;5022376;28;19920;-62
2024/01/28 02:09:17;;;;;;;;;;;2.60;99.90;;;;;;5023003;28;19925;-61
2024/01/28 02:11:43;;;;;;;;;;;2.50;99.90;;;;;;5022577;28;19913;-62
2024/01/28 02:14:08;;;;;;;;;;;2.50;99.90;;;;;;5022504;28;19917;-61
2024/01/28 02:16:34;;;;;;;;;;;2.50;99.90;;;;;;5022668;28;19924;-62
2024/01/28 02:18:59;;;;;;;;;;;2.50;99.90;;;;;;5022658;28;20364;-62
2024/01/28 02:21:25;;;;;;;;;;;2.50;99.90;;;;;;5022378;28;19956;-61
2024/01/28 02:23:50;;;;;;;;;;;2.50;99.90;;;;;;5022544;28;20035;-61
2024/01/28 02:26:16;;;;;;;;;;;2.50;99.90;;;;;;5022519;28;19916;-62
2024/01/28 02:28:41;;;;;;;;;;;2.50;99.90;;;;;;5022689;28;19921;-62
2024/01/28 02:31:07;;;;;;;;;;;2.50;99.90;;;;;;5021884;28;19924;-62
2024/01/28 02:33:32;;;;;;;;;;;2.50;99.90;;;;;;5021158;28;19913;-61
2024/01/28 02:35:58;;;;;;;;;;;2.50;99.90;;;;;;5022228;28;20364;-61
2024/01/28 02:38:23;;;;;;;;;;;2.50;99.90;;;;;;5022935;28;19913;-61
2024/01/28 02:40:51;;;;;;;;;;;2.50;99.90;;;;;;5015936;28;19913;-61
2024/01/28 02:43:16;;;;;;;;;;;2.40;99.90;;;;;;5016383;28;19913;-62
2024/01/28 02:45:42;;;;;;;;;;;2.50;99.90;;;;;;5025504;28;19920;-61
2024/01/28 02:48:07;;;;;;;;;;;2.40;99.90;;;;;;5023590;28;19940;-62
2024/01/28 02:50:33;;;;;;;;;;;2.40;99.90;;;;;;5013201;28;20011;-61
2024/01/28 02:52:58;;;;;;;;;;;2.40;99.90;;;;;;5026402;28;19921;-61
2024/01/28 02:55:24;;;;;;;;;;;2.40;99.90;;;;;;5025367;28;19970;-61
2024/01/28 02:57:49;;;;;;;;;;;2.40;99.90;;;;;;5025924;28;20013;-61
2024/01/28 03:00:16;;;;;;;;;;;2.40;99.90;;;;;;5017587;28;19957;-61
2024/01/28 03:02:42;;;;;;;;;;;2.40;99.90;;;;;;5025495;28;19962;-62
2024/01/28 03:05:11;;;;;;;;;;;2.40;99.90;;;;;;5025206;28;19917;-61
2024/01/28 03:07:36;;;;;;;;;;;2.40;99.90;;;;;;5025681;28;19913;-61
2024/01/28 03:10:02;;;;;;;;;;;2.40;99.90;;;;;;5025172;28;19914;-62
2024/01/28 03:12:27;;;;;;;;;;;2.40;99.90;;;;;;5033784;28;20238;-61
2024/01/28 03:14:53;;;;;;;;;;;2.40;99.90;;;;;;5017888;28;19917;-62
2024/01/28 03:17:18;;;;;;;;;;;2.40;99.90;;;;;;5027582;28;19919;-62
2024/01/28 03:19:44;;;;;;;;;;;2.40;99.90;;;;;;5025498;28;20000;-61
2024/01/28 03:22:09;;;;;;;;;;;2.40;99.90;;;;;;5025089;28;21288;-61
2024/01/28 03:24:35;;;;;;;;;;;2.30;99.90;;;;;;5025602;28;20369;-62
2024/01/28 03:27:00;;;;;;;;;;;2.30;99.90;;;;;;5005788;28;19914;-61
2024/01/28 03:29:26;;;;;;;;;;;2.40;99.90;;;;;;5025744;28;19940;-61
2024/01/28 03:31:51;;;;;;;;;;;2.30;99.90;;;;;;5024916;28;19951;-61
2024/01/28 03:34:17;;;;;;;;;;;2.30;99.90;;;;;;5025519;28;19925;-62
2024/01/28 03:36:42;;;;;;;;;;;2.30;99.90;;;;;;5025311;28;19929;-62
2024/01/28 03:39:08;;;;;;;;;;;2.30;99.90;;;;;;5025189;28;19920;-61
2024/01/28 03:41:33;;;;;;;;;;;2.30;99.90;;;;;;5025131;28;19909;-61
2024/01/28 03:43:59;;;;;;;;;;;2.30;99.90;;;;;;5025155;28;19913;-62
2024/01/28 03:46:24;;;;;;;;;;;2.30;99.90;;;;;;5024909;28;20366;-61
2024/01/28 03:48:50;;;;;;;;;;;2.30;99.90;;;;;;5025175;28;19958;-61
2024/01/28 03:51:15;;;;;;;;;;;2.30;99.90;;;;;;5016604;28;19913;-61
2024/01/28 03:53:41;;;;;;;;;;;2.30;99.90;;;;;;5024572;28;19913;-62
2024/01/28 03:56:07;;;;;;;;;;;2.30;99.90;;;;;;5026328;28;19921;-61
2024/01/28 03:58:32;;;;;;;;;;;2.20;99.90;;;;;;5031132;28;20045;-62
2024/01/28 04:00:58;;;;;;;;;;;2.20;99.90;;;;;;5025288;28;19917;-61
2024/01/28 04:03:23;;;;;;;;;;;2.20;99.90;;;;;;5031739;28;19913;-62
2024/01/28 04:05:49;;;;;;;;;;;2.20;99.90;;;;;;5024781;28;19940;-61
2024/01/28 04:08:14;;;;;;;;;;;2.20;99.90;;;;;;5024293;28;20300;-61
2024/01/28 04:10:40;;;;;;;;;;;2.20;99.90;;;;;;5024683;28;20234;-62
2024/01/28 04:13:05;;;;;;;;;;;2.20;99.90;;;;;;5024408;28;19909;-61
2024/01/28 04:15:31;;;;;;;;;;;2.20;99.90;;;;;;5024442;28;19924;-61
2024/01/28 04:17:56;;;;;;;;;;;2.20;99.90;;;;;;5024357;28;20036;-61
2024/01/28 04:20:22;;;;;;;;;;;2.20;99.90;;;;;;5024392;28;19920;-61
2024/01/28 04:22:47;;;;;;;;;;;2.10;99.90;;;;;;5024373;28;19917;-61
2024/01/28 04:25:13;;;;;;;;;;;2.10;99.90;;;;;;5024163;28;20445;-62
2024/01/28 04:27:38;;;;;;;;;;;2.20;99.90;;;;;;5024404;28;20322;-61
2024/01/28 04:30:05;;;;;;;;;;;2.10;99.90;;;;;;5006156;28;19917;-62
2024/01/28 04:32:30;;;;;;;;;;;2.10;99.90;;;;;;5024586;28;20273;-61
2024/01/28 04:34:56;;;;;;;;;;;2.10;99.90;;;;;;5024132;28;19917;-62
2024/01/28 04:37:22;;;;;;;;;;;2.10;99.90;;;;;;5024268;28;19928;-62
2024/01/28 04:39:48;;;;;;;;;;;2.10;99.90;;;;;;5024236;28;20410;-61
2024/01/28 04:42:13;;;;;;;;;;;2.10;99.90;;;;;;5023722;28;20004;-62
2024/01/28 04:44:39;;;;;;;;;;;2.10;99.90;;;;;;5024401;28;19917;-61
2024/01/28 04:47:04;;;;;;;;;;;2.10;99.90;;;;;;5023715;28;19913;-61
2024/01/28 04:49:32;;;;;;;;;;;2.10;99.90;;;;;;5024563;28;20035;-62
2024/01/28 04:51:58;;;;;;;;;;;2.10;99.90;;;;;;5023199;28;19925;-61
2024/01/28 04:54:23;;;;;;;;;;;2.10;99.90;;;;;;5024095;28;19917;-61
2024/01/28 04:56:49;;;;;;;;;;;2.00;99.90;;;;;;5023909;28;19909;-61
2024/01/28 04:59:14;;;;;;;;;;;2.00;99.90;;;;;;5023550;28;19909;-61
2024/01/28 05:01:40;;;;;;;;;;;2.00;99.90;;;;;;5023486;28;19917;-61
2024/01/28 05:04:05;;;;;;;;;;;2.00;99.90;;;;;;5023639;28;20000;-62
2024/01/28 05:06:37;;;;;;;;;;;2.00;99.90;;;;;;5023360;28;19988;-62
2024/01/28 05:09:08;;;;;;;;;;;2.00;99.90;;;;;;5053422;28;19913;-61
2024/01/28 05:11:33;;;;;;;;;;;2.00;99.90;;;;;;5017450;28;19967;-61
2024/01/28 05:13:59;;;;;;;;;;;2.00;99.90;;;;;;5023054;28;20327;-61
2024/01/28 05:16:25;;;;;;;;;;;2.00;99.90;;;;;;5023268;28;19921;-61
2024/01/28 05:18:53;;;;;;;;;;;1.90;99.90;;;;;;5023406;28;20286;-61
2024/01/28 05:21:19;;;;;;;;;;;2.00;99.90;;;;;;5015196;28;19932;-61
2024/01/28 05:23:47;;;;;;;;;;;2.00;99.90;;;;;;5023715;28;20422;-61
2024/01/28 05:26:13;;;;;;;;;;;1.90;99.90;;;;;;5022945;28;19917;-62
2024/01/28 05:28:38;;;;;;;;;;;1.90;99.90;;;;;;5018511;28;19921;-62
2024/01/28 05:31:04;;;;;;;;;;;1.90;99.90;;;;;;5022888;28;19992;-62
2024/01/28 05:33:30;;;;;;;;;;;1.90;99.90;;;;;;5023830;28;19913;-61
2024/01/28 05:35:57;;;;;;;;;;;1.90;99.90;;;;;;5022856;28;19917;-61
2024/01/28 05:38:23;;;;;;;;;;;1.90;99.90;;;;;;5023636;28;19913;-61
2024/01/28 05:40:49;;;;;;;;;;;1.90;99.90;;;;;;5023373;28;20107;-61
2024/01/28 05:43:14;;;;;;;;;;;1.90;99.90;;;;;;5023080;28;20011;-61
2024/01/28 05:45:40;;;;;;;;;;;1.90;99.90;;;;;;5023419;28;19925;-61
2024/01/28 05:48:05;;;;;;;;;;;1.80;99.90;;;;;;5004447;28;19917;-61
2024/01/28 05:50:31;;;;;;;;;;;1.90;99.90;;;;;;5023256;28;20501;-62
2024/01/28 05:52:56;;;;;;;;;;;1.80;99.90;;;;;;5022802;28;19917;-61
2024/01/28 05:55:22;;;;;;;;;;;1.80;99.90;;;;;;5023216;28;19918;-62
2024/01/28 05:57:47;;;;;;;;;;;1.80;99.90;;;;;;5023421;28;19913;-61
2024/01/28 06:00:14;;;;;;;;;;;1.80;99.90;;;;;;5022577;28;20412;-61
2024/01/28 06:02:41;;;;;;;;;;;1.90;99.90;;;;;;5038376;28;20429;-62
2024/01/28 06:05:06;;;;;;;;;;;1.80;99.90;;;;;;5023103;28;20048;-62
2024/01/28 06:07:32;;;;;;;;;;;1.80;99.90;;;;;;5023069;28;19929;-62
2024/01/28 06:09:57;;;;;;;;;;;1.80;99.90;;;;;;5022177;28;19917;-61
2024/01/28 06:12:23;;;;;;;;;;;1.80;99.90;;;;;;5022645;28;19967;-61
2024/01/28 06:14:48;;;;;;;;;;;1.80;99.90;;;;;;5049798;28;20007;-61
2024/01/28 06:17:15;;;;;;;;;;;1.80;99.90;;;;;;5022436;28;19909;-61
2024/01/28 06:19:40;;;;;;;;;;;1.80;99.90;;;;;;5026600;28;19916;-61
2024/01/28 06:22:06;;;;;;;;;;;1.80;99.90;;;;;;5025694;28;19913;-61
2024/01/28 06:24:32;;;;;;;;;;;1.80;99.90;;;;;;5026744;28;19913;-61
2024/01/28 06:26:57;;;;;;;;;;;1.80;99.90;;;;;;5020637;28;19917;-61
2024/01/28 06:29:23;;;;;;;;;;;1.80;99.90;;;;;;5026375;28;20601;-61
2024/01/28 06:31:50;;;;;;;;;;;1.70;99.90;;;;;;5026052;28;19909;-61
2024/01/28 06:34:15;;;;;;;;;;;1.80;99.90;;;;;;5057309;28;19916;-61
2024/01/28 06:36:41;;;;;;;;;;;1.70;99.90;;;;;;5026058;28;19913;-61
2024/01/28 06:39:07;;;;;;;;;;;1.70;99.90;;;;;;5026110;28;20455;-61
2024/01/28 06:41:32;;;;;;;;;;;1.70;99.90;;;;;;5025962;28;19913;-61
2024/01/28 06:43:58;;;;;;;;;;;1.70;99.90;;;;;;5025695;28;20247;-61
2024/01/28 06:46:24;;;;;;;;;;;1.70;99.90;;;;;;5017155;28;20050;-61
2024/01/28 06:48:49;;;;;;;;;;;1.70;99.90;;;;;;5025888;28;19909;-62
2024/01/28 06:51:15;;;;;;;;;;;1.70;99.90;;;;;;5024243;28;20386;-61
2024/01/28 06:53:41;;;;;;;;;;;1.70;99.90;;;;;;5025287;28;20678;-61
2024/01/28 06:56:06;;;;;;;;;;;1.70;99.90;;;;;;5016051;28;19979;-62
2024/01/28 06:58:32;;;;;;;;;;;1.70;99.90;;;;;;5023679;28;19981;-61
2024/01/28 07:00:57;;;;;;;;;;;1.70;99.90;;;;;;5017084;28;19966;-61
2024/01/28 07:03:23;;;;;;;;;;;1.70;99.90;;;;;;5025071;28;20744;-61
2024/01/28 07:05:48;;;;;;;;;;;1.70;99.90;;;;;;5024937;28;20389;-62
2024/01/28 07:08:14;;;;;;;;;;;1.70;99.90;;;;;;5024556;28;20012;-61
2024/01/28 07:10:39;;;;;;;;;;;1.70;99.90;;;;;;5013785;28;19948;-61
2024/01/28 07:13:05;;;;;;;;;;;1.60;99.90;;;;;;5023145;28;19917;-61
2024/01/28 07:15:30;;;;;;;;;;;1.70;99.90;;;;;;5024960;28;20608;-61
2024/01/28 07:17:56;;;;;;;;;;;1.70;99.90;;;;;;5025272;28;19914;-61
2024/01/28 07:20:21;;;;;;;;;;;1.70;99.90;;;;;;5032495;28;19917;-61
2024/01/28 07:22:47;;;;;;;;;;;1.60;99.90;;;;;;5025118;28;20031;-61
2024/01/28 07:25:13;;;;;;;;;;;1.60;99.90;;;;;;5055845;28;20046;-61
2024/01/28 07:27:39;;;;;;;;;;;1.60;99.90;;;;;;5019563;28;20294;-61
2024/01/28 07:30:05;;;;;;;;;;;1.60;99.90;;;;;;5024777;28;19917;-61
2024/01/28 07:32:31;;;;;;;;;;;1.60;99.90;;;;;;5025354;28;20005;-61
2024/01/28 07:34:56;;;;;;;;;;;1.60;99.90;;;;;;5024791;28;19925;-62
2024/01/28 07:37:22;;;;;;;;;;;1.60;99.90;;;;;;5024961;28;20505;-61
2024/01/28 07:39:47;;;;;;;;;;;1.60;99.90;;;;;;5025178;28;20461;-61
2024/01/28 07:42:13;;;;;;;;;;;1.60;99.90;;;;;;5024845;28;20011;-61
2024/01/28 07:44:39;;;;;;;;;;;1.60;99.90;;;;;;5024749;28;19928;-62
2024/01/28 07:47:05;;;;;;;;;;;1.60;99.90;;;;;;5009485;28;20380;-61
2024/01/28 07:49:30;;;;;;;;;;;1.60;99.90;;;;;;5024651;28;20357;-61
2024/01/28 07:51:56;;;;;;;;;;;1.60;99.90;;;;;;5023978;28;20009;-61
2024/01/28 07:54:21;;;;;;;;;;;1.60;99.90;;;;;;5024274;28;19921;-62
2024/01/28 07:56:47;;;;;;;;;;;1.60;99.90;;;;;;5024693;28;19925;-61
2024/01/28 07:59:12;;;;;;;;;;;1.60;99.90;;;;;;5024533;28;19917;-61
2024/01/28 08:01:38;;;;;;;;;;;1.60;99.90;;;;;;5024301;28;19940;-61
2024/01/28 08:04:04;;;;;;;;;;;1.60;99.90;;;;;;5024618;28;19936;-61
2024/01/28 08:06:30;;;;;;;;;;;1.60;99.90;;;;;;5023316;28;19913;-61
2024/01/28 08:08:56;;;;;;;;;;;1.60;99.90;;;;;;5023882;28;19928;-61
2024/01/28 08:11:21;;;;;;;;;;;1.60;99.90;;;;;;5024481;28;19914;-61
2024/01/28 08:13:48;;;;;;;;;;;1.60;99.90;;;;;;5024589;28;19917;-61
2024/01/28 08:16:14;;;;;;;;;;;1.60;99.90;;;;;;5005911;28;20314;-61
2024/01/28 08:18:40;;;;;;;;;;;1.60;99.90;;;;;;5024584;28;19916;-62
2024/01/28 08:21:05;;;;;;;;;;;1.60;99.90;;;;;;5023733;28;19910;-61
2024/01/28 08:23:31;;;;;;;;;;;1.60;99.90;;;;;;5024450;28;19916;-62
2024/01/28 08:25:56;;;;;;;;;;;1.60;99.90;;;;;;5023978;28;19913;-62
2024/01/28 08:28:22;;;;;;;;;;;1.60;99.90;;;;;;5006222;28;19917;-61
2024/01/28 08:30:48;;;;;;;;;;;1.60;99.90;;;;;;5051235;28;20393;-61
2024/01/28 08:33:13;;;;;;;;;;;1.60;99.90;;;;;;5023882;28;19912;-61
2024/01/28 08:35:39;;;;;;;;;;;1.60;99.90;;;;;;5024011;28;19924;-61
2024/01/28 08:38:04;;;;;;;;;;;1.60;99.90;;;;;;5023844;28;20425;-62
2024/01/28 08:40:30;;;;;;;;;;;1.60;99.90;;;;;;5023484;28;20368;-61
2024/01/28 08:42:56;;;;;;;;;;;1.60;99.90;;;;;;5023554;28;20023;-61
2024/01/28 08:45:22;;;;;;;;;;;1.60;99.90;;;;;;5024099;28;19913;-61
2024/01/28 08:47:47;;;;;;;;;;;1.60;99.90;;;;;;5024017;28;19917;-61
2024/01/28 08:50:13;;;;;;;;;;;1.70;99.90;;;;;;5023419;28;20365;-61
2024/01/28 08:52:39;;;;;;;;;;;1.60;99.90;;;;;;5005714;28;20449;-61
2024/01/28 08:55:04;;;;;;;;;;;1.60;99.90;;;;;;5023570;28;19913;-61
2024/01/28 08:57:31;;;;;;;;;;;1.70;99.90;;;;;;5023937;28;20111;-62
2024/01/28 08:59:56;;;;;;;;;;;1.70;99.90;;;;;;5023313;28;19924;-61
2024/01/28 09:02:22;;;;;;;;;;;1.70;99.90;;;;;;5022575;28;20389;-61
2024/01/28 09:04:47;;;;;;;;;;;1.70;99.90;;;;;;5022996;28;19924;-61
2024/01/28 09:07:13;;;;;;;;;;;1.80;99.90;;;;;;5003805;28;19913;-61
2024/01/28 09:09:38;;;;;;;;;;;1.70;99.90;;;;;;5023156;28;19917;-61
2024/01/28 09:12:04;;;;;;;;;;;1.70;99.90;;;;;;5022656;28;19919;-61
2024/01/28 09:14:30;;;;;;;;;;;1.70;99.90;;;;;;5023102;28;19976;-61
2024/01/28 09:16:55;;;;;;;;;;;1.70;99.90;;;;;;5024682;28;20697;-61
2024/01/28 09:19:21;;;;;;;;;;;1.70;99.90;;;;;;5041166;28;19933;-61
2024/01/28 09:21:46;;;;;;;;;;;1.70;99.90;;;;;;5022690;28;19913;-61
2024/01/28 09:24:12;;;;;;;;;;;1.70;99.90;;;;;;5022505;28;20063;-62
2024/01/28 09:26:37;;;;;;;;;;;1.80;99.90;;;;;;5022557;28;19913;-61
2024/01/28 09:29:03;;;;;;;;;;;1.80;99.90;;;;;;5022240;28;19921;-62
2024/01/28 09:31:29;;;;;;;;;;;1.80;99.90;;;;;;5022223;28;20003;-61
2024/01/28 09:33:54;;;;;;;;;;;1.80;99.90;;;;;;5022237;28;19909;-61
2024/01/28 09:36:20;;;;;;;;;;;1.90;99.90;;;;;;5022272;28;20017;-61
2024/01/28 09:38:45;;;;;;;;;;;1.90;99.90;;;;;;5022615;28;20028;-61
2024/01/28 09:41:20;;;;;;;;;;;1.90;99.90;;;;;;5021891;28;20024;-61
2024/01/28 09:43:46;;;;;;;;;;;1.90;99.90;;;;;;5023029;28;20373;-62
2024/01/28 09:46:12;;;;;;;;;;;2.00;99.90;;;;;;5022420;28;19973;-61
2024/01/28 09:48:38;;;;;;;;;;;2.00;99.90;;;;;;5023171;28;19962;-61
2024/01/28 09:51:04;;;;;;;;;;;2.10;99.90;;;;;;5022339;28;20015;-61
2024/01/28 09:53:29;;;;;;;;;;;2.10;99.90;;;;;;5038215;28;20012;-61
2024/01/28 09:55:55;;;;;;;;;;;2.10;99.90;;;;;;5008402;28;19954;-61
2024/01/28 09:58:21;;;;;;;;;;;2.20;99.90;;;;;;5022508;28;20288;-61
2024/01/28 10:00:47;;;;;;;;;;;2.20;99.90;;;;;;5022163;28;19917;-61
2024/01/28 10:03:13;;;;;;;;;;;2.30;99.90;;;;;;5022579;28;19913;-61
2024/01/28 10:05:38;;;;;;;;;;;2.30;99.90;;;;;;5022800;28;19920;-61
2024/01/28 10:08:04;;;;;;;;;;;2.30;99.90;;;;;;5022372;28;19913;-62
2024/01/28 10:10:33;;;;;;;;;;;2.30;99.90;;;;;;5022761;28;19913;-61
2024/01/28 10:12:59;;;;;;;;;;;2.40;99.90;;;;;;5021981;28;19919;-61
2024/01/28 10:15:26;;;;;;;;;;;2.40;99.90;;;;;;5022269;28;20279;-61
2024/01/28 10:17:52;;;;;;;;;;;2.50;99.90;;;;;;5030236;28;19958;-61
2024/01/28 10:20:18;;;;;;;;;;;2.50;99.90;;;;;;5005796;28;19951;-61
2024/01/28 10:22:44;;;;;;;;;;;2.60;99.90;;;;;;5022540;28;19956;-61
2024/01/28 10:25:15;;;;;;;;;;;2.60;99.90;;;;;;5022631;28;20018;-61
2024/01/28 10:27:47;;;;;;;;;;;2.60;99.90;;;;;;5022691;28;19913;-61
2024/01/28 10:30:14;;;;;;;;;;;2.60;99.90;;;;;;5022152;28;19921;-61
2024/01/28 10:32:41;;;;;;;;;;;2.70;99.90;;;;;;5022546;28;20270;-61
2024/01/28 10:35:09;;;;;;;;;;;2.70;99.90;;;;;;5021928;28;19963;-61
2024/01/28 10:37:35;;;;;;;;;;;2.70;99.90;;;;;;5022779;28;19919;-61
2024/01/28 10:40:11;;;;;;;;;;;2.80;99.90;;;;;;5022090;28;20285;-61
2024/01/28 10:42:40;;;;;;;;;;;2.80;99.90;;;;;;5004704;28;19921;-61
2024/01/28 10:45:09;;;;;;;;;;;2.80;99.90;;;;;;5022420;28;19940;-61
2024/01/28 10:47:36;;;;;;;;;;;2.90;99.90;;;;;;5022455;28;20433;-61
2024/01/28 10:50:07;;;;;;;;;;;2.90;99.90;;;;;;5004152;28;19919;-61
2024/01/28 10:52:33;;;;;;;;;;;3.00;99.90;;;;;;5022469;28;19914;-61
2024/01/28 10:54:59;;;;;;;;;;;3.00;99.90;;;;;;5022186;28;20611;-61
2024/01/28 10:57:26;;;;;;;;;;;3.10;99.90;;;;;;5022283;28;19909;-62
2024/01/28 10:59:52;;;;;;;;;;;3.10;99.90;;;;;;5022190;28;19943;-62
2024/01/28 11:02:20;;;;;;;;;;;3.10;99.90;;;;;;5021575;28;20103;-61
2024/01/28 11:04:45;;;;;;;;;;;3.20;99.90;;;;;;5024827;28;19909;-61
2024/01/28 11:07:12;;;;;;;;;;;3.30;99.90;;;;;;5025030;28;20028;-61
2024/01/28 11:09:38;;;;;;;;;;;3.30;99.90;;;;;;5025471;28;20591;-61
2024/01/28 11:12:04;;;;;;;;;;;3.30;99.90;;;;;;5024671;28;19945;-61
2024/01/28 11:14:30;;;;;;;;;;;3.40;99.90;;;;;;5025227;28;20366;-61
2024/01/28 11:16:56;;;;;;;;;;;3.40;99.90;;;;;;5025364;28;19920;-61
2024/01/28 11:19:26;;;;;;;;;;;3.50;99.90;;;;;;5024827;27;19920;-61
2024/01/28 11:21:52;;;;;;;;;;;3.50;99.90;;;;;;5024883;28;19909;-61
2024/01/28 11:24:18;;;;;;;;;;;3.60;99.90;;;;;;5026933;28;19917;-61
2024/01/28 11:26:44;;;;;;;;;;;3.60;99.90;;;;;;5021244;28;19913;-61
2024/01/28 11:29:10;;;;;;;;;;;3.70;99.90;;;;;;5023237;28;19921;-61
2024/01/28 11:31:40;;;;;;;;;;;3.80;99.90;;;;;;5024563;28;19916;-61
2024/01/28 11:34:21;;;;;;;;;;;3.90;99.90;;;;;;5024791;28;19913;-61
2024/01/28 11:36:47;;;;;;;;;;;3.90;99.90;;;;;;5024887;28;19963;-61
2024/01/28 11:39:14;;;;;;;;;;;4.00;99.90;;;;;;5008146;28;20349;-61
2024/01/28 11:41:41;;;;;;;;;;;4.10;99.90;;;;;;5009381;28;19909;-61
2024/01/28 11:44:08;;;;;;;;;;;4.10;99.90;;;;;;5024603;28;19920;-61
2024/01/28 11:46:38;;;;;;;;;;;4.20;99.90;;;;;;5024489;28;20350;-61
2024/01/28 11:49:04;;;;;;;;;;;4.30;99.90;;;;;;5024581;28;19929;-62
2024/01/28 11:51:31;;;;;;;;;;;4.30;99.90;;;;;;5023957;28;19917;-62
2024/01/28 11:54:00;;;;;;;;;;;4.40;99.90;;;;;;5024677;28;19913;-61
2024/01/28 11:56:35;;;;;;;;;;;4.40;99.90;;;;;;5023034;28;19921;-61
2024/01/28 11:59:01;;;;;;;;;;;4.50;99.90;;;;;;5024024;28;20496;-62
2024/01/28 12:01:27;;;;;;;;;;;4.50;99.90;;;;;;5023773;28;19996;-61
2024/01/28 12:03:54;;;;;;;;;;;4.60;99.90;;;;;;5024103;28;20020;-61
2024/01/28 12:06:20;;;;;;;;;;;4.60;99.90;;;;;;5023575;28;19996;-61
2024/01/28 12:08:46;;;;;;;;;;;4.60;99.90;;;;;;5016967;27;19913;-61
2024/01/28 12:11:13;;;;;;;;;;;4.70;99.90;;;;;;5020835;28;19917;-61
2024/01/28 12:13:39;;;;;;;;;;;4.70;99.90;;;;;;5023166;28;19913;-61
2024/01/28 12:16:05;;;;;;;;;;;4.80;99.90;;;;;;5022645;28;20337;-61
2024/01/28 12:18:31;;;;;;;;;;;4.80;99.90;;;;;;5023324;28;19941;-61
2024/01/28 12:20:56;;;;;;;;;;;4.90;99.90;;;;;;5017296;28;19921;-61
2024/01/28 12:23:22;;;;;;;;;;;4.90;99.90;;;;;;5022987;28;19924;-61
2024/01/28 12:25:49;;;;;;;;;;;5.00;99.90;;;;;;5022573;28;19960;-62
2024/01/28 12:28:14;;;;;;;;;;;5.00;99.90;;;;;;5028391;28;19913;-61
2024/01/28 12:30:40;;;;;;;;;;;5.10;99.90;;;;;;5024458;28;19917;-61
2024/01/28 12:33:06;;;;;;;;;;;5.10;99.90;;;;;;5024062;28;20027;-62
2024/01/28 12:35:32;;;;;;;;;;;5.20;99.90;;;;;;5023848;28;19966;-61
2024/01/28 12:37:58;;;;;;;;;;;5.20;99.90;;;;;;5007525;28;19917;-61
2024/01/28 12:40:23;;;;;;;;;;;5.30;99.90;;;;;;5023522;28;19913;-62
2024/01/28 12:42:49;;;;;;;;;;;5.40;99.90;;;;;;5024243;28;19909;-61
2024/01/28 12:45:15;;;;;;;;;;;5.40;99.90;;;;;;5023758;28;19913;-61
2024/01/28 12:47:40;;;;;;;;;;;5.50;99.90;;;;;;5024240;28;19915;-61
2024/01/28 12:50:06;;;;;;;;;;;5.50;99.90;;;;;;5023718;28;20032;-62
2024/01/28 12:52:32;;;;;;;;;;;5.60;99.90;;;;;;5023088;28;19925;-62
2024/01/28 12:54:58;;;;;;;;;;;5.60;99.90;;;;;;5023525;28;19921;-61
2024/01/28 12:57:24;;;;;;;;;;;5.70;99.90;;;;;;5025173;28;20323;-61
2024/01/28 12:59:49;;;;;;;;;;;5.80;99.90;;;;;;5024649;28;19909;-62
2024/01/28 13:02:15;;;;;;;;;;;5.90;99.90;;;;;;5023666;28;20525;-61
2024/01/28 13:04:40;;;;;;;;;;;5.90;99.90;;;;;;5024330;28;19945;-61
2024/01/28 13:07:06;;;;;;;;;;;6.00;99.90;;;;;;5023961;28;19919;-62
2024/01/28 13:09:31;;;;;;;;;;;6.00;99.90;;;;;;5023998;28;20012;-62
2024/01/28 13:11:57;;;;;;;;;;;6.10;99.90;;;;;;5022222;28;19928;-62
2024/01/28 13:14:23;;;;;;;;;;;6.10;99.90;;;;;;5021034;28;19921;-62
2024/01/28 13:16:49;;;;;;;;;;;6.20;99.90;;;;;;5016124;28;19914;-61
2024/01/28 13:19:14;;;;;;;;;;;6.30;99.90;;;;;;5021578;28;19960;-62
2024/01/28 13:21:40;;;;;;;;;;;6.30;99.90;;;;;;5038201;28;20552;-62
2024/01/28 13:24:06;;;;;;;;;;;6.30;99.90;;;;;;5022502;28;20301;-62
2024/01/28 13:26:32;;;;;;;;;;;6.40;99.90;;;;;;5022936;28;19914;-62
2024/01/28 13:28:57;;;;;;;;;;;6.40;99.90;;;;;;5023389;28;20357;-61
2024/01/28 13:31:23;;;;;;;;;;;6.50;99.90;;;;;;5022353;28;20000;-61
2024/01/28 13:33:48;;;;;;;;;;;6.50;99.90;;;;;;5023295;28;19920;-62
2024/01/28 13:36:14;;;;;;;;;;;6.50;99.90;;;;;;5022475;28;19970;-61
2024/01/28 13:38:43;;;;;;;;;;;6.50;99.90;;;;;;5023835;28;20319;-62
2024/01/28 13:41:08;;;;;;;;;;;6.60;99.90;;;;;;5021917;28;19989;-61
2024/01/28 13:43:35;;;;;;;;;;;6.60;99.90;;;;;;5022850;28;19921;-62
2024/01/28 13:46:01;;;;;;;;;;;6.60;99.90;;;;;;5033860;28;19943;-62
2024/01/28 13:48:26;;;;;;;;;;;6.60;99.90;;;;;;5022993;28;19920;-62
2024/01/28 13:50:52;;;;;;;;;;;6.60;99.90;;;;;;5022157;28;19913;-62
2024/01/28 13:53:17;;;;;;;;;;;6.60;99.90;;;;;;5022165;28;19917;-62
2024/01/28 13:55:43;;;;;;;;;;;6.70;99.90;;;;;;5022699;28;20289;-62
2024/01/28 13:58:08;;;;;;;;;;;6.70;99.90;;;;;;5022827;28;19913;-61
2024/01/28 14:00:34;;;;;;;;;;;6.70;99.90;;;;;;5022765;28;19913;-62
2024/01/28 14:03:00;;;;;;;;;;;6.70;99.90;;;;;;5022880;28;20334;-61
2024/01/28 14:05:25;;;;;;;;;;;6.70;99.90;;;;;;5014534;28;19909;-62
2024/01/28 14:07:51;;;;;;;;;;;6.70;99.90;;;;;;5022895;28;19910;-61
2024/01/28 14:10:16;;;;;;;;;;;6.70;99.90;;;;;;5022526;28;20432;-62
2024/01/28 14:12:42;;;;;;;;;;;6.70;99.90;;;;;;5022657;28;19913;-62
2024/01/28 14:15:09;;;;;;;;;;;6.70;99.90;;;;;;5022372;28;19917;-62
2024/01/28 14:17:34;;;;;;;;;;;6.70;99.90;;;;;;5021765;28;19924;-62
2024/01/28 14:20:00;;;;;;;;;;;6.70;99.90;;;;;;5022047;28;19913;-62
2024/01/28 14:22:29;;;;;;;;;;;6.70;99.90;;;;;;5014054;28;19951;-62